Time;durP1;ratioP1;P1;durP2;ratioP2;P2;SDS_P1;SDS_P2;PMS_P1;PMS_P2;Temp;Humidity;BMP_temperature;BMP_pressure;BME280_temperature;BME280_humidity;BME280_pressure;Samples;Min_cycle;Max_cycle;Signal;HPM_P1;HPM_P2
2021/01/31 00:00:52;;;;;;;;;;;;;;;0.39;72.24;96975.03;1678530;85;26135;-87
2021/01/31 00:03:38;;;;;;;;;;;;;;;0.37;72.23;96978.16;1652985;86;25866;-87
2021/01/31 00:06:25;;;;;;;;;;;;;;;0.33;72.19;96975.35;1626315;87;20570;-88
2021/01/31 00:09:11;;;;;;;;;;;;;;;0.25;72.16;96972.37;1642621;86;24877;-88
2021/01/31 00:11:56;;;;;;;;;;;;;;;0.27;72.13;96978.24;1623651;87;22131;-88
2021/01/31 00:14:42;;;;;;;;;;;;;;;0.22;72.11;96971.70;1628484;87;26326;-88
2021/01/31 00:17:28;;;;;;;;;;;;;;;0.12;72.11;96966.64;1628851;87;24719;-88
2021/01/31 00:20:14;;;;;;;;;;;;;;;0.03;72.05;96974.84;1625384;87;20624;-88
2021/01/31 00:23:00;;;;;;;;;;;;;;;-0.05;72.04;96973.48;1626886;87;24930;-89
2021/01/31 00:25:46;;;;;;;;;;;;;;;-0.17;72.01;96969.44;1677715;84;22373;-88
2021/01/31 00:28:32;;;;;;;;;;;;;;;-0.29;71.95;96968.31;1675171;85;26143;-89
2021/01/31 00:31:18;;;;;;;;;;;;;;;-0.16;71.91;96962.08;1675114;85;24572;-88
2021/01/31 00:34:08;;;;;;;;;;;;;;;-0.06;71.89;96968.44;1671999;85;20353;-88
2021/01/31 00:36:54;;;;;;;;;;;;;;;-0.05;71.91;96969.63;1670794;85;24959;-88
2021/01/31 00:39:40;;;;;;;;;;;;;;;-0.14;71.87;96966.70;1680869;85;22326;-88
2021/01/31 00:42:27;;;;;;;;;;;;;;;-0.19;71.85;96965.65;1681173;85;27625;-88
2021/01/31 00:45:13;;;;;;;;;;;;;;;-0.20;71.83;96964.44;1674892;85;24695;-88
2021/01/31 00:47:59;;;;;;;;;;;;;;;-0.19;71.80;96969.50;1680795;85;20510;-87
2021/01/31 00:50:49;;;;;;;;;;;;;;;-0.22;71.79;96976.55;1678175;85;25102;-88
2021/01/31 00:53:35;;;;;;;;;;;;;;;-0.23;71.76;96971.86;1681254;85;22167;-88
2021/01/31 00:56:23;;;;;;;;;;;;;;;-0.13;71.77;96969.65;1681053;85;26179;-88
2021/01/31 00:59:09;;;;;;;;;;;;;;;-0.06;71.76;96973.58;1677569;85;24626;-88
2021/01/31 01:01:42;;;;;;;;;;;;;;;-0.10;71.77;96965.63;1674587;84;20604;-87
2021/01/31 01:04:28;;;;;;;;;;;;;;;-0.07;71.76;96956.48;1677415;85;24865;-87
2021/01/31 01:07:14;;;;;;;;;;;;;;;-0.03;71.73;96947.25;1673463;85;21463;-87
2021/01/31 01:10:00;;;;;;;;;;;;;;;0.03;71.73;96952.98;1651563;86;27078;-88
2021/01/31 01:12:46;;;;;;;;;;;;;;;-0.01;71.71;96953.16;1642030;86;24854;-87
2021/01/31 01:15:32;;;;;;;;;;;;;;;-0.03;71.71;96951.10;1648107;86;20465;-87
2021/01/31 01:18:18;;;;;;;;;;;;;;;-0.04;71.68;96952.45;1676239;85;24913;-87
2021/01/31 01:21:06;;;;;;;;;;;;;;;-0.05;71.65;96952.08;1661254;85;22876;-87
2021/01/31 01:23:55;;;;;;;;;;;;;;;-0.15;71.64;96965.86;1680190;85;26137;-87
2021/01/31 01:26:41;;;;;;;;;;;;;;;-0.34;71.62;96967.71;1677250;85;25657;-88
2021/01/31 01:29:27;;;;;;;;;;;;;;;-0.49;71.59;96962.86;1674512;85;20518;-88
2021/01/31 01:32:13;;;;;;;;;;;;;;;-0.76;71.56;96969.34;1680196;85;24978;-88
2021/01/31 01:35:03;;;;;;;;;;;;;;;-0.99;71.49;96974.33;1675261;85;21638;-87
2021/01/31 01:37:49;;;;;;;;;;;;;;;-0.90;71.44;96975.16;1678528;85;25326;-85
2021/01/31 01:40:34;;;;;;;;;;;;;;;-0.73;71.40;96972.23;1679359;85;24842;-84
2021/01/31 01:43:20;;;;;;;;;;;;;;;-0.65;71.40;96970.94;1681566;85;20361;-84
2021/01/31 01:46:07;;;;;;;;;;;;;;;-0.66;71.41;96968.47;1677234;85;24929;-84
2021/01/31 01:48:54;;;;;;;;;;;;;;;-0.58;71.44;96967.17;1679991;85;22091;-84
2021/01/31 01:51:39;;;;;;;;;;;;;;;-0.48;71.45;96976.54;1675230;85;26230;-84
2021/01/31 01:54:25;;;;;;;;;;;;;;;-0.46;71.43;96982.00;1679016;85;24550;-86
2021/01/31 01:57:12;;;;;;;;;;;;;;;-0.40;71.42;96976.17;1677940;85;20396;-86
2021/01/31 01:59:58;;;;;;;;;;;;;;;-0.40;71.42;96986.00;1672775;85;25027;-86
2021/01/31 02:02:44;;;;;;;;;;;;;;;-0.47;71.40;96979.05;1677227;85;23024;-87
2021/01/31 02:05:30;;;;;;;;;;;;;;;-0.53;71.38;96973.37;1676625;85;26082;-86
2021/01/31 02:08:16;;;;;;;;;;;;;;;-0.55;71.34;96981.17;1680542;85;24561;-86
2021/01/31 02:11:02;;;;;;;;;;;;;;;-0.57;71.31;96985.99;1684284;85;20572;-86
2021/01/31 02:13:51;;;;;;;;;;;;;;;-0.69;71.29;96984.84;1685152;84;24929;-86
2021/01/31 02:16:39;;;;;;;;;;;;;;;-0.96;71.26;96981.03;1681661;85;22217;-86
2021/01/31 02:19:25;;;;;;;;;;;;;;;-0.99;71.21;96984.59;1681950;85;26318;-86
2021/01/31 02:22:11;;;;;;;;;;;;;;;-0.92;71.18;96983.82;1681407;84;24621;-86
2021/01/31 02:24:48;;;;;;;;;;;;;;;-0.91;71.15;96986.78;1680790;85;20659;-88
2021/01/31 02:27:35;;;;;;;;;;;;;;;-1.02;71.12;96986.45;1684186;85;25010;-88
2021/01/31 02:30:14;;;;;;;;;;;;;;;-1.20;71.07;96991.98;1679337;85;22135;-88
2021/01/31 02:33:04;;;;;;;;;;;;;;;-1.47;71.00;96996.64;1684687;85;26147;-89
2021/01/31 02:35:50;;;;;;;;;;;;;;;-1.67;70.91;97001.84;1686720;85;25576;-88
2021/01/31 02:38:36;;;;;;;;;;;;;;;-1.83;70.82;97001.69;1679893;85;20286;-89
2021/01/31 02:41:23;;;;;;;;;;;;;;;-1.88;70.74;97001.05;1686407;85;24918;-88
2021/01/31 02:44:08;;;;;;;;;;;;;;;-1.86;70.71;97007.41;1678091;85;22272;-87
2021/01/31 02:46:55;;;;;;;;;;;;;;;-1.81;70.69;97008.88;1683382;85;26330;-88
2021/01/31 02:49:41;;;;;;;;;;;;;;;-1.89;70.71;97003.67;1676029;83;24729;-87
2021/01/31 02:52:27;;;;;;;;;;;;;;;-2.12;70.69;97009.78;1679139;85;20275;-88
2021/01/31 02:55:13;;;;;;;;;;;;;;;-2.13;70.68;97017.11;1685555;85;24913;-88
2021/01/31 02:57:59;;;;;;;;;;;;;;;-2.03;70.68;97023.95;1676248;85;22139;-88
2021/01/31 03:00:44;;;;;;;;;;;;;;;-2.01;70.71;97024.70;1680210;85;26199;-88
2021/01/31 03:03:34;;;;;;;;;;;;;;;-1.94;70.71;97028.23;1681049;85;24691;-88
2021/01/31 03:06:20;;;;;;;;;;;;;;;-1.93;70.75;97036.76;1682507;85;20283;-87
2021/01/31 03:09:06;;;;;;;;;;;;;;;-2.02;70.81;97037.16;1688032;84;24892;-88
2021/01/31 03:11:52;;;;;;;;;;;;;;;-1.97;70.84;97033.95;1685024;83;22141;-88
2021/01/31 03:14:39;;;;;;;;;;;;;;;-1.92;70.86;97029.01;1687637;84;27140;-88
2021/01/31 03:17:25;;;;;;;;;;;;;;;-1.95;70.93;97038.09;1688364;84;24623;-89
2021/01/31 03:20:11;;;;;;;;;;;;;;;-2.03;70.99;97032.48;1686122;84;20268;-88
2021/01/31 03:22:59;;;;;;;;;;;;;;;-2.05;71.01;97034.70;1690602;84;25737;-85
2021/01/31 03:25:44;;;;;;;;;;;;;;;-1.96;71.06;97036.87;1687294;84;22113;-85
2021/01/31 03:28:30;;;;;;;;;;;;;;;-1.97;71.10;97036.06;1685759;84;27234;-85
2021/01/31 03:31:17;;;;;;;;;;;;;;;-1.92;71.17;97037.98;1686158;84;25479;-85
2021/01/31 03:34:04;;;;;;;;;;;;;;;-1.70;71.22;97045.58;1689434;84;20601;-85
2021/01/31 03:36:50;;;;;;;;;;;;;;;-1.49;71.30;97040.79;1688643;84;24126;-84
2021/01/31 03:39:35;;;;;;;;;;;;;;;-1.46;71.35;97047.50;1688554;84;22117;-84
2021/01/31 03:42:25;;;;;;;;;;;;;;;-1.39;71.43;97048.45;1685765;84;27063;-84
2021/01/31 03:45:11;;;;;;;;;;;;;;;-1.37;71.44;97050.52;1690405;84;24592;-84
2021/01/31 03:47:59;;;;;;;;;;;;;;;-1.41;71.48;97053.26;1689291;83;20458;-89
2021/01/31 03:50:45;;;;;;;;;;;;;;;-1.53;71.49;97040.55;1686582;84;25888;-89
2021/01/31 03:53:32;;;;;;;;;;;;;;;-1.50;71.49;97046.81;1691047;84;22216;-89
2021/01/31 03:56:18;;;;;;;;;;;;;;;-1.56;71.50;97049.64;1690040;84;27235;-88
2021/01/31 03:59:07;;;;;;;;;;;;;;;-1.69;71.47;97044.21;1680032;84;24663;-89
2021/01/31 04:01:53;;;;;;;;;;;;;;;-1.61;71.48;97059.72;1687226;84;20525;-89
2021/01/31 04:04:40;;;;;;;;;;;;;;;-1.66;71.50;97068.06;1692077;83;25086;-89
2021/01/31 04:07:26;;;;;;;;;;;;;;;-1.84;71.49;97062.83;1687666;84;21975;-88
2021/01/31 04:10:11;;;;;;;;;;;;;;;-1.95;71.45;97064.17;1687843;84;26223;-88
2021/01/31 04:12:58;;;;;;;;;;;;;;;-1.85;71.44;97069.30;1684967;84;25555;-88
2021/01/31 04:15:44;;;;;;;;;;;;;;;-1.84;71.45;97074.36;1662035;84;20557;-89
2021/01/31 04:18:31;;;;;;;;;;;;;;;-1.86;71.47;97079.19;1678775;84;24924;-88
2021/01/31 04:21:17;;;;;;;;;;;;;;;-1.70;71.46;97081.48;1682855;84;22143;-88
2021/01/31 04:27:14;;;;;;;;;;;;;;;-1.55;71.54;97082.09;1692475;84;24835;-88
2021/01/31 04:30:01;;;;;;;;;;;;;;;-1.73;71.56;97085.00;1692019;84;20466;-88
2021/01/31 04:32:47;;;;;;;;;;;;;;;-1.69;71.55;97095.95;1691410;84;25735;-88
2021/01/31 04:35:33;;;;;;;;;;;;;;;-1.76;71.55;97095.84;1692861;84;22157;-84
2021/01/31 04:38:19;;;;;;;;;;;;;;;-1.83;71.51;97097.83;1693616;84;26058;-84
2021/01/31 04:41:05;;;;;;;;;;;;;;;-1.72;71.49;97098.66;1692946;83;24766;-85
2021/01/31 04:43:52;;;;;;;;;;;;;;;-1.71;71.50;97098.59;1693020;84;20950;-85
2021/01/31 04:46:39;;;;;;;;;;;;;;;-1.77;71.52;97100.58;1693388;84;24978;-85
2021/01/31 04:49:25;;;;;;;;;;;;;;;-1.96;71.49;97101.79;1693589;84;22257;-85
2021/01/31 04:52:11;;;;;;;;;;;;;;;-2.10;71.47;97104.09;1690430;84;26138;-85
2021/01/31 04:55:00;;;;;;;;;;;;;;;-2.22;71.43;97108.44;1692543;84;25710;-84
2021/01/31 04:57:47;;;;;;;;;;;;;;;-2.32;71.38;97110.54;1693275;84;20299;-84
2021/01/31 05:00:34;;;;;;;;;;;;;;;-2.40;71.35;97111.27;1692293;84;24891;-84
2021/01/31 05:03:21;;;;;;;;;;;;;;;-2.49;71.33;97109.09;1689633;84;22895;-84
2021/01/31 05:06:07;;;;;;;;;;;;;;;-2.59;71.31;97111.63;1692866;84;25935;-84
2021/01/31 05:08:53;;;;;;;;;;;;;;;-2.70;71.28;97110.77;1691931;84;24588;-84
2021/01/31 05:11:39;;;;;;;;;;;;;;;-2.90;71.26;97113.70;1689586;84;20290;-84
2021/01/31 05:14:25;;;;;;;;;;;;;;;-3.07;71.24;97111.77;1689559;84;24885;-88
2021/01/31 05:17:12;;;;;;;;;;;;;;;-3.20;71.21;97117.77;1669435;84;21572;-88
2021/01/31 05:19:58;;;;;;;;;;;;;;;-3.31;71.19;97119.88;1693422;84;26152;-89
2021/01/31 05:22:44;;;;;;;;;;;;;;;-3.37;71.18;97123.49;1692728;84;24790;-89
2021/01/31 05:25:31;;;;;;;;;;;;;;;-3.37;71.18;97122.22;1689765;84;20374;-88
2021/01/31 05:28:18;;;;;;;;;;;;;;;-3.32;71.20;97122.05;1671065;85;24881;-89
2021/01/31 05:31:04;;;;;;;;;;;;;;;-3.35;71.22;97127.73;1673611;85;22073;-89
2021/01/31 05:33:38;;;;;;;;;;;;;;;-3.31;71.27;97130.11;1673415;85;26367;-89
2021/01/31 05:36:26;;;;;;;;;;;;;;;-3.21;71.31;97136.56;1676359;85;24569;-89
2021/01/31 05:39:12;;;;;;;;;;;;;;;-3.07;71.39;97134.36;1670813;85;20274;-88
2021/01/31 05:41:59;;;;;;;;;;;;;;;-2.95;71.46;97145.88;1671973;85;24920;-89
2021/01/31 05:44:44;;;;;;;;;;;;;;;-2.76;71.54;97146.84;1673492;85;22251;-89
2021/01/31 05:47:32;;;;;;;;;;;;;;;-2.55;71.61;97147.30;1674621;85;26145;-89
2021/01/31 05:50:18;;;;;;;;;;;;;;;-2.48;71.67;97144.50;1675496;85;24792;-89
2021/01/31 05:53:06;;;;;;;;;;;;;;;-2.41;71.72;97145.50;1673813;85;20357;-88
2021/01/31 05:55:52;;;;;;;;;;;;;;;-2.28;71.78;97149.67;1672262;84;24984;-86
2021/01/31 05:58:38;;;;;;;;;;;;;;;-2.29;71.79;97150.11;1672350;84;22154;-86
2021/01/31 06:01:24;;;;;;;;;;;;;;;-2.31;71.81;97162.17;1675114;85;26139;-84
2021/01/31 06:04:11;;;;;;;;;;;;;;;-2.33;71.83;97156.70;1671116;85;25566;-84
2021/01/31 06:06:57;;;;;;;;;;;;;;;-2.30;71.83;97158.72;1674659;85;20208;-84
2021/01/31 06:09:43;;;;;;;;;;;;;;;-2.18;71.82;97159.48;1669555;85;25027;-84
2021/01/31 06:12:32;;;;;;;;;;;;;;;-2.15;71.79;97164.95;1674154;85;22105;-84
2021/01/31 06:15:17;;;;;;;;;;;;;;;-2.14;71.79;97166.19;1676957;84;26202;-84
2021/01/31 06:18:03;;;;;;;;;;;;;;;-2.05;71.77;97174.39;1673867;85;24544;-84
2021/01/31 06:20:49;;;;;;;;;;;;;;;-2.02;71.75;97179.41;1674662;85;20275;-87
2021/01/31 06:23:24;;;;;;;;;;;;;;;-2.01;71.70;97176.76;1674169;85;24910;-87
2021/01/31 06:26:12;;;;;;;;;;;;;;;-2.02;71.68;97176.40;1670580;84;22139;-87
2021/01/31 06:29:01;;;;;;;;;;;;;;;-1.98;71.67;97180.95;1666488;85;26144;-87
2021/01/31 06:31:49;;;;;;;;;;;;;;;-2.00;71.63;97181.44;1664653;86;24657;-83
2021/01/31 06:34:37;;;;;;;;;;;;;;;-2.05;71.59;97185.47;1665580;84;20270;-87
2021/01/31 06:37:24;;;;;;;;;;;;;;;-2.19;71.55;97185.20;1663670;86;25108;-88
2021/01/31 06:40:10;;;;;;;;;;;;;;;-2.34;71.48;97185.33;1664203;84;23103;-87
2021/01/31 06:42:56;;;;;;;;;;;;;;;-2.43;71.43;97189.98;1665746;86;26144;-88
2021/01/31 06:45:41;;;;;;;;;;;;;;;-2.72;71.36;97185.50;1664796;86;25519;-87
2021/01/31 06:48:27;;;;;;;;;;;;;;;-2.92;71.28;97188.41;1665689;85;20274;-88
2021/01/31 06:51:14;;;;;;;;;;;;;;;-3.00;71.19;97194.63;1665507;86;24924;-86
2021/01/31 06:54:01;;;;;;;;;;;;;;;-2.81;71.14;97197.38;1666597;86;23118;-86
2021/01/31 06:56:53;;;;;;;;;;;;;;;-2.76;71.11;97201.04;1664102;85;26290;-86
2021/01/31 06:59:38;;;;;;;;;;;;;;;-2.99;71.11;97206.55;1665332;86;24656;-86
2021/01/31 07:02:24;;;;;;;;;;;;;;;-3.17;71.05;97209.77;1664299;85;20382;-88
2021/01/31 07:05:12;;;;;;;;;;;;;;;-3.24;71.02;97213.42;1662915;86;24885;-88
2021/01/31 07:08:02;;;;;;;;;;;;;;;-2.98;71.00;97212.06;1666089;84;22133;-85
2021/01/31 07:10:48;;;;;;;;;;;;;;;-2.69;71.03;97212.29;1666288;86;26084;-83
2021/01/31 07:13:38;;;;;;;;;;;;;;;-2.49;71.06;97210.25;1665000;84;24635;-83
2021/01/31 07:16:24;;;;;;;;;;;;;;;-2.33;71.11;97211.34;1664819;86;20730;-84
2021/01/31 07:19:11;;;;;;;;;;;;;;;-2.27;71.18;97215.39;1665511;86;25175;-89
2021/01/31 07:21:58;;;;;;;;;;;;;;;-2.35;71.22;97213.59;1665975;86;22249;-88
2021/01/31 07:24:44;;;;;;;;;;;;;;;-2.39;71.26;97209.45;1665282;86;26123;-86
2021/01/31 07:27:30;;;;;;;;;;;;;;;-2.37;71.28;97214.08;1663781;84;24761;-86
2021/01/31 07:30:16;;;;;;;;;;;;;;;-2.32;71.30;97213.02;1665540;84;20398;-86
2021/01/31 07:33:02;;;;;;;;;;;;;;;-2.32;71.31;97210.89;1665940;86;24932;-87
2021/01/31 07:35:49;;;;;;;;;;;;;;;-2.35;71.32;97209.75;1646502;86;22709;-86
2021/01/31 07:38:37;;;;;;;;;;;;;;;-2.36;71.32;97208.07;1664604;86;26368;-86
2021/01/31 07:41:10;;;;;;;;;;;;;;;-2.36;71.30;97210.19;1663736;86;24762;-88
2021/01/31 07:43:56;;;;;;;;;;;;;;;-2.35;71.30;97211.86;1665328;86;20534;-88
2021/01/31 07:46:45;;;;;;;;;;;;;;;-2.39;71.29;97209.45;1665667;84;24874;-87
2021/01/31 07:49:36;;;;;;;;;;;;;;;-2.41;71.29;97210.81;1663330;84;22857;-90
2021/01/31 07:52:22;;;;;;;;;;;;;;;-2.39;71.28;97214.58;1662837;86;27012;-91
2021/01/31 07:55:13;;;;;;;;;;;;;;;-2.37;71.28;97214.92;1665604;84;24568;-91
2021/01/31 07:57:59;;;;;;;;;;;;;;;-2.32;71.30;97227.10;1664811;86;20388;-87
2021/01/31 08:00:46;;;;;;;;;;;;;;;-2.35;71.31;97227.23;1666728;86;24903;-87
2021/01/31 08:03:32;;;;;;;;;;;;;;;-2.34;71.31;97228.04;1662531;84;23316;-88
2021/01/31 08:06:08;;;;;;;;;;;;;;;-2.40;71.32;97227.02;1664121;86;26158;-87
2021/01/31 08:08:55;;;;;;;;;;;;;;;-2.51;71.33;97226.14;1661535;86;25810;-85
2021/01/31 08:11:41;;;;;;;;;;;;;;;-2.56;71.33;97231.85;1663768;86;20372;-89
2021/01/31 08:14:27;;;;;;;;;;;;;;;-2.66;71.30;97226.24;1664299;86;24919;-87
2021/01/31 08:17:14;;;;;;;;;;;;;;;-2.81;71.29;97225.53;1665885;86;22149;-89
2021/01/31 08:20:00;;;;;;;;;;;;;;;-2.89;71.27;97234.39;1664286;86;26282;-88
2021/01/31 08:22:45;;;;;;;;;;;;;;;-2.95;71.25;97236.25;1663337;84;24607;-89
2021/01/31 08:25:34;;;;;;;;;;;;;;;-2.97;71.25;97233.37;1666066;86;20191;-88
2021/01/31 08:28:20;;;;;;;;;;;;;;;-2.98;71.27;97235.09;1670693;85;24980;-88
2021/01/31 08:31:07;;;;;;;;;;;;;;;-3.00;71.28;97228.38;1673193;84;22156;-87
2021/01/31 08:33:53;;;;;;;;;;;;;;;-3.05;71.31;97239.19;1672686;85;27004;-87
2021/01/31 08:36:41;;;;;;;;;;;;;;;-3.19;71.32;97235.01;1672337;84;24818;-88
2021/01/31 08:39:27;;;;;;;;;;;;;;;-3.21;71.32;97235.49;1666834;85;20347;-89
2021/01/31 08:42:19;;;;;;;;;;;;;;;-3.27;71.34;97235.26;1666803;85;25079;-85
2021/01/31 08:45:05;;;;;;;;;;;;;;;-3.29;71.35;97238.77;1668118;85;22379;-88
2021/01/31 08:47:50;;;;;;;;;;;;;;;-3.28;71.35;97241.28;1670028;85;26092;-89
2021/01/31 08:50:37;;;;;;;;;;;;;;;-3.23;71.41;97240.69;1668308;85;24576;-90
2021/01/31 08:53:23;;;;;;;;;;;;;;;-3.17;71.46;97245.59;1669354;85;20276;-90
2021/01/31 08:56:09;;;;;;;;;;;;;;;-3.14;71.52;97241.64;1667638;84;25894;-90
2021/01/31 08:58:55;;;;;;;;;;;;;;;-3.14;71.57;97236.96;1667886;85;22029;-89
2021/01/31 09:01:41;;;;;;;;;;;;;;;-3.12;71.61;97228.80;1661509;85;26096;-85
2021/01/31 09:04:27;;;;;;;;;;;;;;;-3.08;71.66;97235.03;1672493;85;24614;-85
2021/01/31 09:07:14;;;;;;;;;;;;;;;-2.98;71.69;97239.38;1669774;85;20394;-85
2021/01/31 09:10:04;;;;;;;;;;;;;;;-2.91;71.75;97238.72;1669503;85;25858;-85
2021/01/31 09:12:50;;;;;;;;;;;;;;;-2.77;71.82;97244.16;1669690;85;22155;-86
2021/01/31 09:15:35;;;;;;;;;;;;;;;-2.56;71.89;97232.69;1664551;84;26132;-86
2021/01/31 09:18:21;;;;;;;;;;;;;;;-2.37;71.96;97235.41;1640721;85;24747;-86
2021/01/31 09:21:11;;;;;;;;;;;;;;;-2.06;72.07;97238.06;1643084;86;20295;-86
2021/01/31 09:23:58;;;;;;;;;;;;;;;-1.96;72.17;97232.96;1650608;86;25140;-85
2021/01/31 09:26:43;;;;;;;;;;;;;;;-1.98;72.25;97227.92;1648028;84;22147;-87
2021/01/31 09:29:29;;;;;;;;;;;;;;;-1.99;72.24;97236.50;1637420;87;27166;-91
2021/01/31 09:32:17;;;;;;;;;;;;;;;-1.96;72.21;97233.80;1691570;84;24726;-89
2021/01/31 09:35:02;;;;;;;;;;;;;;;-1.91;72.19;97234.93;1692435;84;20486;-87
2021/01/31 09:37:49;;;;;;;;;;;;;;;-1.84;72.16;97237.16;1692819;84;25148;-88
2021/01/31 09:40:35;;;;;;;;;;;;;;;-1.69;72.14;97235.70;1692109;84;22342;-87
2021/01/31 09:43:23;;;;;;;;;;;;;;;-1.50;72.14;97228.95;1692093;84;26960;-86
2021/01/31 09:46:09;;;;;;;;;;;;;;;-1.44;72.15;97235.11;1691111;84;25406;-88
2021/01/31 09:48:56;;;;;;;;;;;;;;;-1.38;72.17;97236.14;1691467;83;20263;-88
2021/01/31 09:51:47;;;;;;;;;;;;;;;-1.35;72.15;97237.73;1692832;84;25758;-87
2021/01/31 09:54:42;;;;;;;;;;;;;;;-1.41;72.12;97245.68;1676727;83;20502;-88
2021/01/31 09:57:28;;;;;;;;;;;;;;;-1.36;72.07;97244.59;1681587;85;26031;-88
2021/01/31 10:00:14;;;;;;;;;;;;;;;-1.19;72.07;97242.61;1675600;85;25053;-88
2021/01/31 10:03:00;;;;;;;;;;;;;;;-1.09;72.04;97240.51;1678361;85;20307;-88
2021/01/31 10:05:46;;;;;;;;;;;;;;;-0.97;72.03;97245.92;1679114;83;25301;-87
2021/01/31 10:08:33;;;;;;;;;;;;;;;-0.90;72.04;97241.37;1644422;85;36154;-87
2021/01/31 10:11:20;;;;;;;;;;;;;;;-0.85;72.01;97240.27;1681823;85;26995;-87
2021/01/31 10:14:06;;;;;;;;;;;;;;;-0.80;71.97;97240.51;1678716;85;25788;-88
2021/01/31 10:16:59;;;;;;;;;;;;;;;-0.69;71.95;97238.30;1679630;85;20522;-87
2021/01/31 10:19:46;;;;;;;;;;;;;;;-0.65;71.91;97242.39;1680510;85;25110;-86
2021/01/31 10:22:34;;;;;;;;;;;;;;;-0.59;71.86;97235.70;1629617;87;22034;-88
2021/01/31 10:25:23;;;;;;;;;;;;;;;-0.57;71.84;97235.20;1639888;85;26220;-86
2021/01/31 10:28:09;;;;;;;;;;;;;;;-0.59;71.79;97231.41;1676545;84;24622;-89
2021/01/31 10:30:56;;;;;;;;;;;;;;;-0.66;71.71;97233.88;1683004;85;20585;-89
2021/01/31 10:33:42;;;;;;;;;;;;;;;-0.70;71.64;97228.92;1674171;85;24921;-89
2021/01/31 10:36:27;;;;;;;;;;;;;;;-0.73;71.54;97233.77;1676659;85;22288;-87
2021/01/31 10:39:13;;;;;;;;;;;;;;;-0.82;71.47;97234.18;1685820;85;26902;-87
2021/01/31 10:41:59;;;;;;;;;;;;;;;-0.90;71.37;97226.80;1679726;85;24621;-87
2021/01/31 10:44:46;;;;;;;;;;;;;;;-0.91;71.29;97230.70;1680692;85;20341;-87
2021/01/31 10:47:32;;;;;;;;;;;;;;;-0.92;71.22;97229.87;1681176;85;24918;-87
2021/01/31 10:50:23;;;;;;;;;;;;;;;-0.94;71.17;97225.72;1678498;85;23226;-87
2021/01/31 10:53:10;;;;;;;;;;;;;;;-0.99;71.09;97219.95;1677630;85;27008;-88
2021/01/31 10:55:57;;;;;;;;;;;;;;;-1.09;71.02;97225.91;1673987;85;25044;-89
2021/01/31 10:58:46;;;;;;;;;;;;;;;-1.27;70.94;97221.13;1669852;85;20270;-89
2021/01/31 11:01:31;;;;;;;;;;;;;;;-1.38;70.82;97224.59;1670460;85;24880;-88
2021/01/31 11:04:17;;;;;;;;;;;;;;;-1.52;70.72;97224.77;1668954;85;22141;-88
2021/01/31 11:07:03;;;;;;;;;;;;;;;-1.59;70.62;97225.94;1665123;85;26355;-88
2021/01/31 11:09:49;;;;;;;;;;;;;;;-1.60;70.52;97228.11;1664039;85;24600;-87
2021/01/31 11:12:35;;;;;;;;;;;;;;;-1.54;70.46;97224.02;1670966;85;20546;-87
2021/01/31 11:15:21;;;;;;;;;;;;;;;-1.55;70.42;97224.91;1670900;85;24916;-87
2021/01/31 11:18:11;;;;;;;;;;;;;;;-1.59;70.38;97225.94;1670747;84;23221;-87
2021/01/31 11:20:57;;;;;;;;;;;;;;;-1.54;70.34;97223.56;1671660;85;26291;-87
2021/01/31 11:23:43;;;;;;;;;;;;;;;-1.50;70.31;97227.66;1664149;85;24751;-86
2021/01/31 11:26:29;;;;;;;;;;;;;;;-1.43;70.31;97221.84;1665164;85;20309;-86
2021/01/31 11:29:15;;;;;;;;;;;;;;;-1.43;70.29;97221.84;1663922;85;24898;-86
2021/01/31 11:32:01;;;;;;;;;;;;;;;-1.29;70.30;97225.48;1664713;85;22153;-86
2021/01/31 11:34:47;;;;;;;;;;;;;;;-1.27;70.30;97225.43;1675028;85;26047;-87
2021/01/31 11:37:34;;;;;;;;;;;;;;;-1.28;70.29;97227.60;1665594;84;24627;-86
2021/01/31 11:40:20;;;;;;;;;;;;;;;-1.36;70.22;97223.23;1671834;85;20323;-86
2021/01/31 11:43:06;;;;;;;;;;;;;;;-1.45;70.19;97223.62;1672198;85;24921;-86
2021/01/31 11:45:52;;;;;;;;;;;;;;;-1.49;70.10;97224.66;1670957;85;21841;-86
2021/01/31 11:48:38;;;;;;;;;;;;;;;-1.57;70.04;97224.95;1662470;85;26140;-86
2021/01/31 11:51:27;;;;;;;;;;;;;;;-1.64;69.98;97222.72;1670534;85;23862;-85
2021/01/31 11:54:13;;;;;;;;;;;;;;;-1.65;69.94;97221.89;1675174;85;20376;-84
2021/01/31 11:56:59;;;;;;;;;;;;;;;-1.66;69.87;97220.21;1671836;85;24822;-85
2021/01/31 11:59:48;;;;;;;;;;;;;;;-1.68;69.84;97215.59;1668227;84;21527;-86
2021/01/31 12:02:34;;;;;;;;;;;;;;;-1.66;69.80;97216.37;1670613;85;26154;-86
2021/01/31 12:05:22;;;;;;;;;;;;;;;-1.73;69.77;97211.93;1674529;85;24949;-88
2021/01/31 12:08:08;;;;;;;;;;;;;;;-1.79;69.70;97216.47;1668305;85;20280;-87
2021/01/31 12:10:54;;;;;;;;;;;;;;;-1.74;69.66;97216.66;1672468;83;24903;-87
2021/01/31 12:13:41;;;;;;;;;;;;;;;-1.68;69.62;97218.15;1671646;85;22185;-87
2021/01/31 12:16:27;;;;;;;;;;;;;;;-1.55;69.60;97214.64;1669381;85;26342;-86
2021/01/31 12:19:14;;;;;;;;;;;;;;;-1.39;69.62;97216.95;1667060;85;24743;-85
2021/01/31 12:22:00;;;;;;;;;;;;;;;-1.38;69.62;97211.77;1667687;85;20285;-85
2021/01/31 12:24:47;;;;;;;;;;;;;;;-1.32;69.63;97210.23;1672368;85;25651;-85
2021/01/31 12:27:33;;;;;;;;;;;;;;;-1.30;69.64;97208.41;1668555;84;23034;-84
2021/01/31 12:30:19;;;;;;;;;;;;;;;-1.16;69.61;97201.42;1650945;85;26313;-84
2021/01/31 12:33:05;;;;;;;;;;;;;;;-0.99;69.64;97206.67;1661057;85;24857;-84
2021/01/31 12:35:52;;;;;;;;;;;;;;;-0.92;69.63;97196.49;1671487;85;20291;-84
2021/01/31 12:38:38;;;;;;;;;;;;;;;-0.85;69.65;97203.03;1674517;85;24141;-84
2021/01/31 12:41:23;;;;;;;;;;;;;;;-0.88;69.66;97199.33;1677038;85;22269;-84
2021/01/31 12:44:10;;;;;;;;;;;;;;;-0.94;69.62;97197.47;1674178;85;26153;-85
2021/01/31 12:46:57;;;;;;;;;;;;;;;-0.90;69.55;97190.02;1669245;85;25524;-84
2021/01/31 12:49:43;;;;;;;;;;;;;;;-1.03;69.49;97185.86;1665673;85;20578;-88
2021/01/31 12:52:28;;;;;;;;;;;;;;;-1.01;69.42;97181.50;1667230;85;24922;-87
2021/01/31 12:55:14;;;;;;;;;;;;;;;-1.06;69.37;97177.47;1666710;85;22179;-87
2021/01/31 12:58:01;;;;;;;;;;;;;;;-1.13;69.32;97175.61;1660092;85;26148;-88
2021/01/31 13:00:47;;;;;;;;;;;;;;;-1.20;69.29;97179.81;1662469;85;24693;-87
2021/01/31 13:03:33;;;;;;;;;;;;;;;-1.35;69.19;97186.41;1670176;85;20358;-87
2021/01/31 13:06:18;;;;;;;;;;;;;;;-1.50;69.09;97185.78;1678190;85;24987;-87
2021/01/31 13:09:08;;;;;;;;;;;;;;;-1.63;68.98;97184.17;1665431;85;22144;-87
2021/01/31 13:11:54;;;;;;;;;;;;;;;-1.75;68.89;97186.82;1666547;85;26177;-87
2021/01/31 13:14:34;;;;;;;;;;;;;;;-1.85;68.80;97185.95;1673612;85;25935;-86
2021/01/31 13:17:21;;;;;;;;;;;;;;;-1.94;68.70;97185.05;1647695;86;20589;-87
2021/01/31 13:20:07;;;;;;;;;;;;;;;-2.01;68.63;97185.73;1664487;85;24789;-86
2021/01/31 13:22:54;;;;;;;;;;;;;;;-2.09;68.59;97186.95;1669876;85;22143;-87
2021/01/31 13:25:42;;;;;;;;;;;;;;;-2.12;68.53;97178.91;1672234;85;26262;-87
2021/01/31 13:28:28;;;;;;;;;;;;;;;-2.15;68.50;97184.17;1672029;85;24669;-87
2021/01/31 13:31:14;;;;;;;;;;;;;;;-2.17;68.50;97179.55;1660797;85;20295;-87
2021/01/31 13:34:04;;;;;;;;;;;;;;;-2.18;68.48;97187.67;1670785;85;24913;-85
2021/01/31 13:36:50;;;;;;;;;;;;;;;-2.16;68.49;97191.47;1671725;85;22145;-86
2021/01/31 13:39:37;;;;;;;;;;;;;;;-2.12;68.49;97196.85;1673746;85;27387;-85
2021/01/31 13:42:23;;;;;;;;;;;;;;;-2.12;68.51;97191.28;1669692;85;24753;-85
2021/01/31 13:45:09;;;;;;;;;;;;;;;-2.12;68.50;97195.57;1668121;85;20290;-86
2021/01/31 13:47:55;;;;;;;;;;;;;;;-2.12;68.50;97189.16;1672894;85;24980;-85
2021/01/31 13:50:41;;;;;;;;;;;;;;;-2.15;68.49;97193.98;1674995;84;22139;-86
2021/01/31 13:53:27;;;;;;;;;;;;;;;-2.14;68.49;97195.66;1671559;85;26149;-84
2021/01/31 13:56:13;;;;;;;;;;;;;;;-2.15;68.46;97190.14;1671855;85;25418;-85
2021/01/31 13:58:59;;;;;;;;;;;;;;;-2.16;68.47;97193.59;1678194;85;20291;-88
2021/01/31 14:01:45;;;;;;;;;;;;;;;-2.20;68.46;97192.05;1686724;85;24854;-84
2021/01/31 14:04:32;;;;;;;;;;;;;;;-2.20;68.44;97201.02;1679930;85;22312;-84
2021/01/31 14:07:18;;;;;;;;;;;;;;;-2.22;68.43;97192.55;1677242;85;27128;-86
2021/01/31 14:10:04;;;;;;;;;;;;;;;-2.23;68.42;97192.59;1682287;85;24518;-85
2021/01/31 14:12:51;;;;;;;;;;;;;;;-2.24;68.41;97189.23;1680497;85;20208;-84
2021/01/31 14:15:37;;;;;;;;;;;;;;;-2.24;68.38;97188.39;1679615;84;25100;-84
2021/01/31 14:18:23;;;;;;;;;;;;;;;-2.27;68.37;97190.61;1676689;85;22168;-85
2021/01/31 14:21:09;;;;;;;;;;;;;;;-2.30;68.32;97185.62;1684687;85;26190;-85
2021/01/31 14:23:56;;;;;;;;;;;;;;;-2.28;68.31;97181.25;1680231;85;24673;-88
2021/01/31 14:26:43;;;;;;;;;;;;;;;-2.28;68.31;97179.13;1684509;85;20291;-88
2021/01/31 14:29:29;;;;;;;;;;;;;;;-2.29;68.30;97180.05;1677899;85;24889;-87